sensor_id;sensor_type;location;lat;lon;timestamp;P1;durP1;ratioP1;P2;durP2;ratioP2
21903;SDS011;11116;51.554;7.812;2022-11-20T00:00:22;26.17;;;16.35;;
21903;SDS011;11116;51.554;7.812;2022-11-20T00:02:49;27.13;;;15.90;;
21903;SDS011;11116;51.554;7.812;2022-11-20T00:05:16;25.63;;;16.40;;
21903;SDS011;11116;51.554;7.812;2022-11-20T00:07:44;26.60;;;17.10;;
21903;SDS011;11116;51.554;7.812;2022-11-20T00:10:12;29.17;;;17.05;;
21903;SDS011;11116;51.554;7.812;2022-11-20T00:12:39;29.75;;;18.23;;
21903;SDS011;11116;51.554;7.812;2022-11-20T00:15:09;32.70;;;19.13;;
21903;SDS011;11116;51.554;7.812;2022-11-20T00:17:38;31.17;;;17.98;;
21903;SDS011;11116;51.554;7.812;2022-11-20T00:20:05;32.15;;;19.33;;
21903;SDS011;11116;51.554;7.812;2022-11-20T00:22:32;30.27;;;18.77;;
21903;SDS011;11116;51.554;7.812;2022-11-20T00:24:59;29.55;;;18.67;;
21903;SDS011;11116;51.554;7.812;2022-11-20T00:27:26;31.58;;;20.77;;
21903;SDS011;11116;51.554;7.812;2022-11-20T00:29:53;33.83;;;19.65;;
21903;SDS011;11116;51.554;7.812;2022-11-20T00:32:20;33.00;;;18.73;;
21903;SDS011;11116;51.554;7.812;2022-11-20T00:34:49;36.08;;;20.73;;
21903;SDS011;11116;51.554;7.812;2022-11-20T00:37:16;39.55;;;22.08;;
21903;SDS011;11116;51.554;7.812;2022-11-20T00:39:43;34.38;;;21.52;;
21903;SDS011;11116;51.554;7.812;2022-11-20T00:42:10;39.67;;;22.00;;
21903;SDS011;11116;51.554;7.812;2022-11-20T00:44:37;41.85;;;23.35;;
21903;SDS011;11116;51.554;7.812;2022-11-20T00:47:03;42.30;;;23.40;;
21903;SDS011;11116;51.554;7.812;2022-11-20T00:49:31;40.05;;;23.30;;
21903;SDS011;11116;51.554;7.812;2022-11-20T00:51:59;37.28;;;22.52;;
21903;SDS011;11116;51.554;7.812;2022-11-20T00:54:26;34.38;;;20.48;;
21903;SDS011;11116;51.554;7.812;2022-11-20T00:56:53;33.55;;;20.88;;
21903;SDS011;11116;51.554;7.812;2022-11-20T00:59:20;30.20;;;18.65;;
21903;SDS011;11116;51.554;7.812;2022-11-20T01:01:47;33.45;;;20.00;;
21903;SDS011;11116;51.554;7.812;2022-11-20T01:04:14;35.17;;;18.65;;
21903;SDS011;11116;51.554;7.812;2022-11-20T01:06:45;26.13;;;17.08;;
21903;SDS011;11116;51.554;7.812;2022-11-20T01:09:14;31.60;;;18.25;;
21903;SDS011;11116;51.554;7.812;2022-11-20T01:11:42;29.27;;;18.33;;
21903;SDS011;11116;51.554;7.812;2022-11-20T01:14:11;30.77;;;18.65;;
21903;SDS011;11116;51.554;7.812;2022-11-20T01:16:40;30.63;;;18.27;;
21903;SDS011;11116;51.554;7.812;2022-11-20T01:19:09;33.03;;;18.75;;
21903;SDS011;11116;51.554;7.812;2022-11-20T01:21:39;28.65;;;16.10;;
21903;SDS011;11116;51.554;7.812;2022-11-20T01:24:09;29.38;;;17.38;;
21903;SDS011;11116;51.554;7.812;2022-11-20T01:26:40;30.95;;;17.27;;
21903;SDS011;11116;51.554;7.812;2022-11-20T01:29:10;28.50;;;18.33;;
21903;SDS011;11116;51.554;7.812;2022-11-20T01:31:41;32.00;;;19.27;;
21903;SDS011;11116;51.554;7.812;2022-11-20T01:34:09;29.10;;;17.42;;
21903;SDS011;11116;51.554;7.812;2022-11-20T01:36:37;30.73;;;18.13;;
21903;SDS011;11116;51.554;7.812;2022-11-20T01:39:06;31.83;;;18.98;;
21903;SDS011;11116;51.554;7.812;2022-11-20T01:41:36;32.47;;;19.25;;
21903;SDS011;11116;51.554;7.812;2022-11-20T01:44:39;33.22;;;18.40;;
21903;SDS011;11116;51.554;7.812;2022-11-20T01:47:23;29.55;;;18.55;;
21903;SDS011;11116;51.554;7.812;2022-11-20T01:49:54;32.25;;;18.90;;
21903;SDS011;11116;51.554;7.812;2022-11-20T01:52:26;30.63;;;17.75;;
21903;SDS011;11116;51.554;7.812;2022-11-20T01:54:59;31.85;;;17.88;;
21903;SDS011;11116;51.554;7.812;2022-11-20T01:57:31;36.58;;;20.00;;
21903;SDS011;11116;51.554;7.812;2022-11-20T02:00:05;32.65;;;18.77;;
21903;SDS011;11116;51.554;7.812;2022-11-20T02:02:43;30.10;;;18.38;;
21903;SDS011;11116;51.554;7.812;2022-11-20T02:05:14;31.65;;;18.40;;
21903;SDS011;11116;51.554;7.812;2022-11-20T02:07:49;34.70;;;20.50;;
21903;SDS011;11116;51.554;7.812;2022-11-20T02:10:17;29.67;;;18.05;;
21903;SDS011;11116;51.554;7.812;2022-11-20T02:12:44;30.45;;;18.33;;
21903;SDS011;11116;51.554;7.812;2022-11-20T02:15:31;31.58;;;18.73;;
21903;SDS011;11116;51.554;7.812;2022-11-20T02:17:59;29.33;;;17.83;;
21903;SDS011;11116;51.554;7.812;2022-11-20T02:20:26;31.30;;;18.55;;
21903;SDS011;11116;51.554;7.812;2022-11-20T02:22:54;31.20;;;17.42;;
21903;SDS011;11116;51.554;7.812;2022-11-20T02:25:28;31.63;;;18.83;;
21903;SDS011;11116;51.554;7.812;2022-11-20T02:27:57;29.65;;;16.95;;
21903;SDS011;11116;51.554;7.812;2022-11-20T02:30:26;26.88;;;16.73;;
21903;SDS011;11116;51.554;7.812;2022-11-20T02:32:53;29.25;;;17.42;;
21903;SDS011;11116;51.554;7.812;2022-11-20T02:35:39;27.75;;;17.42;;
21903;SDS011;11116;51.554;7.812;2022-11-20T02:38:07;30.30;;;18.50;;
21903;SDS011;11116;51.554;7.812;2022-11-20T02:40:36;28.67;;;17.65;;
21903;SDS011;11116;51.554;7.812;2022-11-20T02:43:03;31.02;;;18.23;;
21903;SDS011;11116;51.554;7.812;2022-11-20T02:45:30;30.23;;;18.70;;
21903;SDS011;11116;51.554;7.812;2022-11-20T02:47:58;28.67;;;17.38;;
21903;SDS011;11116;51.554;7.812;2022-11-20T02:50:25;31.90;;;19.08;;
21903;SDS011;11116;51.554;7.812;2022-11-20T02:52:53;30.67;;;17.92;;
21903;SDS011;11116;51.554;7.812;2022-11-20T02:55:21;29.10;;;17.52;;
21903;SDS011;11116;51.554;7.812;2022-11-20T02:57:50;30.50;;;18.38;;
21903;SDS011;11116;51.554;7.812;2022-11-20T03:00:17;29.02;;;19.13;;
21903;SDS011;11116;51.554;7.812;2022-11-20T03:02:44;28.58;;;16.98;;
21903;SDS011;11116;51.554;7.812;2022-11-20T03:05:12;27.55;;;17.23;;
21903;SDS011;11116;51.554;7.812;2022-11-20T03:07:39;25.98;;;16.35;;
21903;SDS011;11116;51.554;7.812;2022-11-20T03:10:06;28.58;;;17.02;;
21903;SDS011;11116;51.554;7.812;2022-11-20T03:12:34;25.33;;;15.70;;
21903;SDS011;11116;51.554;7.812;2022-11-20T03:15:03;27.15;;;17.02;;
21903;SDS011;11116;51.554;7.812;2022-11-20T03:17:30;27.55;;;17.00;;
21903;SDS011;11116;51.554;7.812;2022-11-20T03:19:57;28.38;;;18.02;;
21903;SDS011;11116;51.554;7.812;2022-11-20T03:22:24;26.80;;;17.42;;
21903;SDS011;11116;51.554;7.812;2022-11-20T03:24:51;26.67;;;17.20;;
21903;SDS011;11116;51.554;7.812;2022-11-20T03:27:18;29.17;;;17.80;;
21903;SDS011;11116;51.554;7.812;2022-11-20T03:29:45;30.27;;;19.83;;
21903;SDS011;11116;51.554;7.812;2022-11-20T03:32:13;28.85;;;17.20;;
21903;SDS011;11116;51.554;7.812;2022-11-20T03:34:40;26.83;;;17.15;;
21903;SDS011;11116;51.554;7.812;2022-11-20T03:37:07;25.45;;;15.93;;
21903;SDS011;11116;51.554;7.812;2022-11-20T03:39:35;25.52;;;15.80;;
21903;SDS011;11116;51.554;7.812;2022-11-20T03:42:01;28.58;;;17.63;;
21903;SDS011;11116;51.554;7.812;2022-11-20T03:44:49;25.63;;;16.85;;
21903;SDS011;11116;51.554;7.812;2022-11-20T03:47:18;41.85;;;23.85;;
21903;SDS011;11116;51.554;7.812;2022-11-20T03:49:45;30.90;;;18.02;;
21903;SDS011;11116;51.554;7.812;2022-11-20T03:52:12;29.23;;;17.90;;
21903;SDS011;11116;51.554;7.812;2022-11-20T03:54:39;25.50;;;16.30;;
21903;SDS011;11116;51.554;7.812;2022-11-20T03:57:05;26.88;;;17.27;;
21903;SDS011;11116;51.554;7.812;2022-11-20T03:59:33;26.35;;;15.90;;
21903;SDS011;11116;51.554;7.812;2022-11-20T04:02:00;33.45;;;16.90;;
21903;SDS011;11116;51.554;7.812;2022-11-20T04:04:29;27.55;;;16.15;;
21903;SDS011;11116;51.554;7.812;2022-11-20T04:06:56;24.95;;;16.02;;
21903;SDS011;11116;51.554;7.812;2022-11-20T04:09:23;26.50;;;16.90;;
21903;SDS011;11116;51.554;7.812;2022-11-20T04:11:49;24.42;;;15.75;;
21903;SDS011;11116;51.554;7.812;2022-11-20T04:14:16;25.25;;;15.25;;
21903;SDS011;11116;51.554;7.812;2022-11-20T04:16:43;29.00;;;15.18;;
21903;SDS011;11116;51.554;7.812;2022-11-20T04:19:10;22.85;;;15.07;;
21903;SDS011;11116;51.554;7.812;2022-11-20T04:21:40;24.27;;;16.33;;
21903;SDS011;11116;51.554;7.812;2022-11-20T04:24:08;23.30;;;14.77;;
21903;SDS011;11116;51.554;7.812;2022-11-20T04:26:35;24.45;;;15.85;;
21903;SDS011;11116;51.554;7.812;2022-11-20T04:29:03;23.88;;;16.05;;
21903;SDS011;11116;51.554;7.812;2022-11-20T04:31:31;23.50;;;16.27;;
21903;SDS011;11116;51.554;7.812;2022-11-20T04:34:00;24.00;;;15.45;;
21903;SDS011;11116;51.554;7.812;2022-11-20T04:36:28;22.83;;;15.60;;
21903;SDS011;11116;51.554;7.812;2022-11-20T04:38:58;22.80;;;14.85;;
21903;SDS011;11116;51.554;7.812;2022-11-20T04:41:27;25.58;;;15.55;;
21903;SDS011;11116;51.554;7.812;2022-11-20T04:43:56;23.25;;;15.18;;
21903;SDS011;11116;51.554;7.812;2022-11-20T04:46:27;25.15;;;15.55;;
21903;SDS011;11116;51.554;7.812;2022-11-20T04:48:54;25.83;;;16.02;;
21903;SDS011;11116;51.554;7.812;2022-11-20T04:51:22;21.88;;;15.43;;
21903;SDS011;11116;51.554;7.812;2022-11-20T04:53:50;22.67;;;14.40;;
21903;SDS011;11116;51.554;7.812;2022-11-20T04:56:18;22.58;;;14.25;;
21903;SDS011;11116;51.554;7.812;2022-11-20T04:58:45;21.65;;;14.50;;
21903;SDS011;11116;51.554;7.812;2022-11-20T05:01:13;25.42;;;15.65;;
21903;SDS011;11116;51.554;7.812;2022-11-20T05:03:41;23.27;;;14.93;;
21903;SDS011;11116;51.554;7.812;2022-11-20T05:06:10;23.92;;;15.43;;
21903;SDS011;11116;51.554;7.812;2022-11-20T05:08:41;25.50;;;15.57;;
21903;SDS011;11116;51.554;7.812;2022-11-20T05:11:10;25.23;;;15.77;;
21903;SDS011;11116;51.554;7.812;2022-11-20T05:13:40;23.80;;;16.00;;
21903;SDS011;11116;51.554;7.812;2022-11-20T05:16:08;23.92;;;15.15;;
21903;SDS011;11116;51.554;7.812;2022-11-20T05:18:36;25.75;;;16.60;;
21903;SDS011;11116;51.554;7.812;2022-11-20T05:21:04;23.60;;;15.07;;
21903;SDS011;11116;51.554;7.812;2022-11-20T05:23:32;23.17;;;14.93;;
21903;SDS011;11116;51.554;7.812;2022-11-20T05:26:00;22.08;;;14.73;;
21903;SDS011;11116;51.554;7.812;2022-11-20T05:28:28;21.85;;;15.63;;
21903;SDS011;11116;51.554;7.812;2022-11-20T05:31:03;19.05;;;13.82;;
21903;SDS011;11116;51.554;7.812;2022-11-20T05:33:30;24.80;;;14.65;;
21903;SDS011;11116;51.554;7.812;2022-11-20T05:35:58;22.45;;;14.82;;
21903;SDS011;11116;51.554;7.812;2022-11-20T05:38:25;19.88;;;14.60;;
21903;SDS011;11116;51.554;7.812;2022-11-20T05:40:52;21.80;;;14.80;;
21903;SDS011;11116;51.554;7.812;2022-11-20T05:43:19;24.45;;;15.30;;
21903;SDS011;11116;51.554;7.812;2022-11-20T05:45:51;21.48;;;14.50;;
21903;SDS011;11116;51.554;7.812;2022-11-20T05:48:20;22.50;;;13.68;;
21903;SDS011;11116;51.554;7.812;2022-11-20T05:50:47;20.98;;;14.13;;
21903;SDS011;11116;51.554;7.812;2022-11-20T05:53:15;23.83;;;15.20;;
21903;SDS011;11116;51.554;7.812;2022-11-20T05:55:42;20.23;;;13.43;;
21903;SDS011;11116;51.554;7.812;2022-11-20T05:58:09;19.15;;;13.38;;
21903;SDS011;11116;51.554;7.812;2022-11-20T06:00:36;19.30;;;13.45;;
21903;SDS011;11116;51.554;7.812;2022-11-20T06:03:03;22.90;;;15.38;;
21903;SDS011;11116;51.554;7.812;2022-11-20T06:05:32;20.92;;;13.63;;
21903;SDS011;11116;51.554;7.812;2022-11-20T06:08:00;21.25;;;14.07;;
21903;SDS011;11116;51.554;7.812;2022-11-20T06:10:27;21.85;;;14.60;;
21903;SDS011;11116;51.554;7.812;2022-11-20T06:12:56;21.70;;;14.68;;
21903;SDS011;11116;51.554;7.812;2022-11-20T06:15:23;22.52;;;13.85;;
21903;SDS011;11116;51.554;7.812;2022-11-20T06:17:51;19.63;;;14.00;;
21903;SDS011;11116;51.554;7.812;2022-11-20T06:20:18;21.00;;;13.75;;
21903;SDS011;11116;51.554;7.812;2022-11-20T06:22:47;24.83;;;15.55;;
21903;SDS011;11116;51.554;7.812;2022-11-20T06:25:14;24.13;;;14.88;;
21903;SDS011;11116;51.554;7.812;2022-11-20T06:27:42;21.95;;;14.25;;
21903;SDS011;11116;51.554;7.812;2022-11-20T06:30:09;21.50;;;14.60;;
21903;SDS011;11116;51.554;7.812;2022-11-20T06:32:37;23.30;;;14.32;;
21903;SDS011;11116;51.554;7.812;2022-11-20T06:35:04;21.80;;;13.70;;
21903;SDS011;11116;51.554;7.812;2022-11-20T06:37:32;20.15;;;13.23;;
21903;SDS011;11116;51.554;7.812;2022-11-20T06:40:01;18.17;;;12.27;;
21903;SDS011;11116;51.554;7.812;2022-11-20T06:42:28;18.85;;;12.60;;
21903;SDS011;11116;51.554;7.812;2022-11-20T06:44:55;20.17;;;13.63;;
21903;SDS011;11116;51.554;7.812;2022-11-20T06:47:23;19.30;;;12.75;;
21903;SDS011;11116;51.554;7.812;2022-11-20T06:49:50;18.20;;;13.15;;
21903;SDS011;11116;51.554;7.812;2022-11-20T06:52:17;17.35;;;12.38;;
21903;SDS011;11116;51.554;7.812;2022-11-20T06:54:44;20.25;;;13.68;;
21903;SDS011;11116;51.554;7.812;2022-11-20T06:57:14;20.67;;;12.73;;
21903;SDS011;11116;51.554;7.812;2022-11-20T06:59:41;21.67;;;12.52;;
21903;SDS011;11116;51.554;7.812;2022-11-20T07:02:09;16.65;;;11.48;;
21903;SDS011;11116;51.554;7.812;2022-11-20T07:04:38;19.65;;;12.45;;
21903;SDS011;11116;51.554;7.812;2022-11-20T07:07:05;19.73;;;13.50;;
21903;SDS011;11116;51.554;7.812;2022-11-20T07:09:32;20.95;;;13.43;;
21903;SDS011;11116;51.554;7.812;2022-11-20T07:11:59;21.10;;;13.90;;
21903;SDS011;11116;51.554;7.812;2022-11-20T07:14:28;20.17;;;12.40;;
21903;SDS011;11116;51.554;7.812;2022-11-20T07:16:55;16.77;;;11.90;;
21903;SDS011;11116;51.554;7.812;2022-11-20T07:19:22;22.23;;;13.70;;
21903;SDS011;11116;51.554;7.812;2022-11-20T07:21:49;19.35;;;12.18;;
21903;SDS011;11116;51.554;7.812;2022-11-20T07:24:16;21.15;;;13.75;;
21903;SDS011;11116;51.554;7.812;2022-11-20T07:26:45;21.27;;;12.68;;
21903;SDS011;11116;51.554;7.812;2022-11-20T07:29:12;18.55;;;13.38;;
21903;SDS011;11116;51.554;7.812;2022-11-20T07:31:41;21.20;;;13.25;;
21903;SDS011;11116;51.554;7.812;2022-11-20T07:34:08;19.13;;;13.13;;
21903;SDS011;11116;51.554;7.812;2022-11-20T07:36:35;20.63;;;12.65;;
21903;SDS011;11116;51.554;7.812;2022-11-20T07:39:03;21.63;;;13.38;;
21903;SDS011;11116;51.554;7.812;2022-11-20T07:41:30;23.67;;;14.05;;
21903;SDS011;11116;51.554;7.812;2022-11-20T07:43:57;22.20;;;14.55;;
21903;SDS011;11116;51.554;7.812;2022-11-20T07:46:25;21.40;;;12.93;;
21903;SDS011;11116;51.554;7.812;2022-11-20T07:48:53;19.88;;;14.52;;
21903;SDS011;11116;51.554;7.812;2022-11-20T07:51:35;19.83;;;13.77;;
21903;SDS011;11116;51.554;7.812;2022-11-20T07:54:02;19.45;;;13.02;;
21903;SDS011;11116;51.554;7.812;2022-11-20T07:56:30;20.67;;;13.63;;
21903;SDS011;11116;51.554;7.812;2022-11-20T07:58:57;22.45;;;14.85;;
21903;SDS011;11116;51.554;7.812;2022-11-20T08:01:24;21.80;;;14.50;;
21903;SDS011;11116;51.554;7.812;2022-11-20T08:03:52;22.88;;;14.82;;
21903;SDS011;11116;51.554;7.812;2022-11-20T08:06:19;21.42;;;14.95;;
21903;SDS011;11116;51.554;7.812;2022-11-20T08:08:46;24.35;;;15.57;;
21903;SDS011;11116;51.554;7.812;2022-11-20T08:11:13;25.90;;;14.68;;
21903;SDS011;11116;51.554;7.812;2022-11-20T08:13:57;20.25;;;13.70;;
21903;SDS011;11116;51.554;7.812;2022-11-20T08:16:40;21.15;;;14.30;;
21903;SDS011;11116;51.554;7.812;2022-11-20T08:19:10;27.10;;;16.13;;
21903;SDS011;11116;51.554;7.812;2022-11-20T08:21:38;22.52;;;15.13;;
21903;SDS011;11116;51.554;7.812;2022-11-20T08:24:06;22.70;;;14.35;;
21903;SDS011;11116;51.554;7.812;2022-11-20T08:26:34;23.65;;;15.30;;
21903;SDS011;11116;51.554;7.812;2022-11-20T08:29:02;25.45;;;14.70;;
21903;SDS011;11116;51.554;7.812;2022-11-20T08:31:30;21.52;;;14.52;;
21903;SDS011;11116;51.554;7.812;2022-11-20T08:33:58;20.55;;;13.27;;
21903;SDS011;11116;51.554;7.812;2022-11-20T08:36:26;25.58;;;15.07;;
21903;SDS011;11116;51.554;7.812;2022-11-20T08:38:54;20.30;;;13.90;;
21903;SDS011;11116;51.554;7.812;2022-11-20T08:41:22;22.80;;;14.38;;
21903;SDS011;11116;51.554;7.812;2022-11-20T08:43:53;22.60;;;14.95;;
21903;SDS011;11116;51.554;7.812;2022-11-20T08:46:23;20.63;;;14.13;;
21903;SDS011;11116;51.554;7.812;2022-11-20T08:48:50;21.45;;;13.65;;
21903;SDS011;11116;51.554;7.812;2022-11-20T08:51:18;24.60;;;15.48;;
21903;SDS011;11116;51.554;7.812;2022-11-20T08:53:46;22.67;;;15.60;;
21903;SDS011;11116;51.554;7.812;2022-11-20T08:56:15;23.85;;;13.88;;
21903;SDS011;11116;51.554;7.812;2022-11-20T08:58:42;20.38;;;13.60;;
21903;SDS011;11116;51.554;7.812;2022-11-20T09:01:09;23.58;;;15.40;;
21903;SDS011;11116;51.554;7.812;2022-11-20T09:03:37;20.35;;;13.73;;
21903;SDS011;11116;51.554;7.812;2022-11-20T09:06:05;23.85;;;15.10;;
21903;SDS011;11116;51.554;7.812;2022-11-20T09:08:33;19.58;;;13.73;;
21903;SDS011;11116;51.554;7.812;2022-11-20T09:11:02;27.67;;;14.98;;
21903;SDS011;11116;51.554;7.812;2022-11-20T09:13:31;22.52;;;14.77;;
21903;SDS011;11116;51.554;7.812;2022-11-20T09:16:00;21.08;;;14.02;;
21903;SDS011;11116;51.554;7.812;2022-11-20T09:18:28;25.27;;;15.77;;
21903;SDS011;11116;51.554;7.812;2022-11-20T09:20:57;25.02;;;15.07;;
21903;SDS011;11116;51.554;7.812;2022-11-20T09:23:24;25.17;;;14.90;;
21903;SDS011;11116;51.554;7.812;2022-11-20T09:25:52;25.15;;;15.05;;
21903;SDS011;11116;51.554;7.812;2022-11-20T09:28:26;25.27;;;15.15;;
21903;SDS011;11116;51.554;7.812;2022-11-20T09:30:53;23.50;;;15.40;;
21903;SDS011;11116;51.554;7.812;2022-11-20T09:33:20;22.88;;;15.48;;
21903;SDS011;11116;51.554;7.812;2022-11-20T09:35:47;24.33;;;15.88;;
21903;SDS011;11116;51.554;7.812;2022-11-20T09:38:14;24.33;;;16.05;;
21903;SDS011;11116;51.554;7.812;2022-11-20T09:40:43;23.55;;;16.13;;
21903;SDS011;11116;51.554;7.812;2022-11-20T09:43:18;26.27;;;16.08;;
21903;SDS011;11116;51.554;7.812;2022-11-20T09:45:53;26.50;;;15.77;;
21903;SDS011;11116;51.554;7.812;2022-11-20T09:48:48;27.08;;;16.67;;
21903;SDS011;11116;51.554;7.812;2022-11-20T09:51:35;29.80;;;16.42;;
21903;SDS011;11116;51.554;7.812;2022-11-20T09:54:13;25.42;;;17.05;;
21903;SDS011;11116;51.554;7.812;2022-11-20T09:56:44;27.48;;;15.80;;
21903;SDS011;11116;51.554;7.812;2022-11-20T09:59:19;24.55;;;16.65;;
21903;SDS011;11116;51.554;7.812;2022-11-20T10:01:58;23.27;;;16.02;;
21903;SDS011;11116;51.554;7.812;2022-11-20T10:04:27;22.98;;;15.88;;
21903;SDS011;11116;51.554;7.812;2022-11-20T10:07:00;25.33;;;16.75;;
21903;SDS011;11116;51.554;7.812;2022-11-20T10:09:34;22.05;;;16.40;;
21903;SDS011;11116;51.554;7.812;2022-11-20T10:12:06;24.45;;;16.00;;
21903;SDS011;11116;51.554;7.812;2022-11-20T10:14:45;25.08;;;15.88;;
21903;SDS011;11116;51.554;7.812;2022-11-20T10:17:27;26.73;;;16.15;;
21903;SDS011;11116;51.554;7.812;2022-11-20T10:20:10;26.10;;;16.95;;
21903;SDS011;11116;51.554;7.812;2022-11-20T10:22:47;26.08;;;16.08;;
21903;SDS011;11116;51.554;7.812;2022-11-20T10:25:22;16.42;;;11.15;;
21903;SDS011;11116;51.554;7.812;2022-11-20T10:30:47;22.10;;;14.95;;
21903;SDS011;11116;51.554;7.812;2022-11-20T10:33:26;21.38;;;15.25;;
21903;SDS011;11116;51.554;7.812;2022-11-20T10:35:57;21.80;;;15.73;;
21903;SDS011;11116;51.554;7.812;2022-11-20T10:38:34;22.98;;;14.77;;
21903;SDS011;11116;51.554;7.812;2022-11-20T10:41:04;23.15;;;15.60;;
21903;SDS011;11116;51.554;7.812;2022-11-20T10:43:52;21.10;;;14.63;;
21903;SDS011;11116;51.554;7.812;2022-11-20T10:46:25;18.27;;;12.00;;
21903;SDS011;11116;51.554;7.812;2022-11-20T10:48:53;18.58;;;13.27;;
21903;SDS011;11116;51.554;7.812;2022-11-20T10:51:26;20.08;;;13.73;;
21903;SDS011;11116;51.554;7.812;2022-11-20T10:54:05;19.23;;;12.52;;
21903;SDS011;11116;51.554;7.812;2022-11-20T10:56:45;20.98;;;12.98;;
21903;SDS011;11116;51.554;7.812;2022-11-20T10:59:24;19.13;;;13.10;;
21903;SDS011;11116;51.554;7.812;2022-11-20T11:02:14;17.40;;;11.35;;
21903;SDS011;11116;51.554;7.812;2022-11-20T11:04:43;18.48;;;12.38;;
21903;SDS011;11116;51.554;7.812;2022-11-20T11:07:13;16.48;;;11.93;;
21903;SDS011;11116;51.554;7.812;2022-11-20T11:09:48;17.30;;;12.10;;
21903;SDS011;11116;51.554;7.812;2022-11-20T11:12:19;23.75;;;13.45;;
21903;SDS011;11116;51.554;7.812;2022-11-20T11:14:49;21.98;;;13.18;;
21903;SDS011;11116;51.554;7.812;2022-11-20T11:17:18;21.73;;;13.07;;
21903;SDS011;11116;51.554;7.812;2022-11-20T11:20:00;17.40;;;11.85;;
21903;SDS011;11116;51.554;7.812;2022-11-20T11:22:28;18.33;;;12.35;;
21903;SDS011;11116;51.554;7.812;2022-11-20T11:24:57;13.52;;;10.30;;
21903;SDS011;11116;51.554;7.812;2022-11-20T11:27:24;16.60;;;12.23;;
21903;SDS011;11116;51.554;7.812;2022-11-20T11:30:01;22.40;;;12.38;;
21903;SDS011;11116;51.554;7.812;2022-11-20T11:32:39;21.33;;;13.45;;
21903;SDS011;11116;51.554;7.812;2022-11-20T11:35:18;21.05;;;13.77;;
21903;SDS011;11116;51.554;7.812;2022-11-20T11:37:47;22.77;;;14.40;;
21903;SDS011;11116;51.554;7.812;2022-11-20T11:40:14;23.05;;;14.73;;
21903;SDS011;11116;51.554;7.812;2022-11-20T11:42:42;23.85;;;14.82;;
21903;SDS011;11116;51.554;7.812;2022-11-20T11:45:11;23.52;;;14.80;;
21903;SDS011;11116;51.554;7.812;2022-11-20T11:47:43;21.98;;;13.93;;
21903;SDS011;11116;51.554;7.812;2022-11-20T11:50:18;21.77;;;14.35;;
21903;SDS011;11116;51.554;7.812;2022-11-20T11:52:49;22.13;;;14.95;;
21903;SDS011;11116;51.554;7.812;2022-11-20T11:55:27;21.67;;;15.55;;
21903;SDS011;11116;51.554;7.812;2022-11-20T11:58:01;22.75;;;14.48;;
21903;SDS011;11116;51.554;7.812;2022-11-20T12:00:37;21.33;;;15.13;;
21903;SDS011;11116;51.554;7.812;2022-11-20T12:03:10;21.70;;;13.20;;
21903;SDS011;11116;51.554;7.812;2022-11-20T12:05:48;24.33;;;14.90;;
21903;SDS011;11116;51.554;7.812;2022-11-20T12:08:18;22.55;;;14.60;;
21903;SDS011;11116;51.554;7.812;2022-11-20T12:10:53;20.17;;;13.90;;
21903;SDS011;11116;51.554;7.812;2022-11-20T12:13:31;20.50;;;14.95;;
21903;SDS011;11116;51.554;7.812;2022-11-20T12:16:10;17.98;;;13.60;;
21903;SDS011;11116;51.554;7.812;2022-11-20T12:18:40;23.55;;;14.35;;
21903;SDS011;11116;51.554;7.812;2022-11-20T12:21:15;22.38;;;15.18;;
21903;SDS011;11116;51.554;7.812;2022-11-20T12:23:49;23.75;;;15.02;;
21903;SDS011;11116;51.554;7.812;2022-11-20T12:26:30;20.85;;;13.80;;
21903;SDS011;11116;51.554;7.812;2022-11-20T12:29:07;20.00;;;14.23;;
21903;SDS011;11116;51.554;7.812;2022-11-20T12:31:46;17.92;;;12.32;;
21903;SDS011;11116;51.554;7.812;2022-11-20T12:34:24;16.38;;;12.10;;
21903;SDS011;11116;51.554;7.812;2022-11-20T12:37:10;20.60;;;12.57;;
21903;SDS011;11116;51.554;7.812;2022-11-20T12:39:50;16.42;;;11.15;;
21903;SDS011;11116;51.554;7.812;2022-11-20T12:42:25;17.98;;;12.57;;
21903;SDS011;11116;51.554;7.812;2022-11-20T12:45:32;14.93;;;10.98;;
21903;SDS011;11116;51.554;7.812;2022-11-20T12:48:37;17.27;;;11.73;;
21903;SDS011;11116;51.554;7.812;2022-11-20T12:51:34;17.83;;;11.63;;
21903;SDS011;11116;51.554;7.812;2022-11-20T12:54:26;15.38;;;10.80;;
21903;SDS011;11116;51.554;7.812;2022-11-20T12:57:03;13.98;;;10.93;;
21903;SDS011;11116;51.554;7.812;2022-11-20T12:59:45;14.05;;;10.40;;
21903;SDS011;11116;51.554;7.812;2022-11-20T13:02:25;16.58;;;11.32;;
21903;SDS011;11116;51.554;7.812;2022-11-20T13:05:03;16.58;;;11.07;;
21903;SDS011;11116;51.554;7.812;2022-11-20T13:07:44;20.20;;;12.15;;
21903;SDS011;11116;51.554;7.812;2022-11-20T13:10:16;18.75;;;12.13;;
21903;SDS011;11116;51.554;7.812;2022-11-20T13:12:48;17.15;;;11.82;;
21903;SDS011;11116;51.554;7.812;2022-11-20T13:15:26;17.25;;;11.85;;
21903;SDS011;11116;51.554;7.812;2022-11-20T13:18:08;17.02;;;11.82;;
21903;SDS011;11116;51.554;7.812;2022-11-20T13:20:40;17.38;;;11.82;;
21903;SDS011;11116;51.554;7.812;2022-11-20T13:23:09;15.45;;;10.30;;
21903;SDS011;11116;51.554;7.812;2022-11-20T13:25:38;17.33;;;11.57;;
21903;SDS011;11116;51.554;7.812;2022-11-20T13:30:55;17.35;;;11.55;;
21903;SDS011;11116;51.554;7.812;2022-11-20T13:33:23;17.85;;;12.00;;
21903;SDS011;11116;51.554;7.812;2022-11-20T13:35:55;19.33;;;13.65;;
21903;SDS011;11116;51.554;7.812;2022-11-20T13:38:23;18.95;;;13.35;;
21903;SDS011;11116;51.554;7.812;2022-11-20T13:40:52;25.60;;;15.30;;
21903;SDS011;11116;51.554;7.812;2022-11-20T13:43:22;25.08;;;14.65;;
21903;SDS011;11116;51.554;7.812;2022-11-20T13:45:55;23.50;;;14.82;;
21903;SDS011;11116;51.554;7.812;2022-11-20T13:48:38;25.00;;;15.30;;
21903;SDS011;11116;51.554;7.812;2022-11-20T13:51:12;23.88;;;15.13;;
21903;SDS011;11116;51.554;7.812;2022-11-20T13:53:52;22.70;;;15.30;;
21903;SDS011;11116;51.554;7.812;2022-11-20T13:56:37;22.90;;;15.55;;
21903;SDS011;11116;51.554;7.812;2022-11-20T13:59:18;24.65;;;16.02;;
21903;SDS011;11116;51.554;7.812;2022-11-20T14:02:00;20.13;;;13.40;;
21903;SDS011;11116;51.554;7.812;2022-11-20T14:04:28;20.30;;;14.48;;
21903;SDS011;11116;51.554;7.812;2022-11-20T14:07:00;23.60;;;14.82;;
21903;SDS011;11116;51.554;7.812;2022-11-20T14:09:32;20.02;;;13.07;;
21903;SDS011;11116;51.554;7.812;2022-11-20T14:12:02;19.27;;;13.27;;
21903;SDS011;11116;51.554;7.812;2022-11-20T14:14:32;19.60;;;12.82;;
21903;SDS011;11116;51.554;7.812;2022-11-20T14:17:05;17.25;;;11.88;;
21903;SDS011;11116;51.554;7.812;2022-11-20T14:19:33;19.52;;;12.65;;
21903;SDS011;11116;51.554;7.812;2022-11-20T14:22:16;19.10;;;13.10;;
21903;SDS011;11116;51.554;7.812;2022-11-20T14:24:45;18.30;;;12.13;;
21903;SDS011;11116;51.554;7.812;2022-11-20T14:27:15;18.30;;;12.18;;
21903;SDS011;11116;51.554;7.812;2022-11-20T14:29:44;18.50;;;12.43;;
21903;SDS011;11116;51.554;7.812;2022-11-20T14:32:16;19.15;;;13.55;;
21903;SDS011;11116;51.554;7.812;2022-11-20T14:34:45;19.17;;;12.60;;
21903;SDS011;11116;51.554;7.812;2022-11-20T14:37:17;20.42;;;13.10;;
21903;SDS011;11116;51.554;7.812;2022-11-20T14:39:48;24.88;;;15.48;;
21903;SDS011;11116;51.554;7.812;2022-11-20T14:42:20;25.40;;;15.38;;
21903;SDS011;11116;51.554;7.812;2022-11-20T14:44:50;19.27;;;12.90;;
21903;SDS011;11116;51.554;7.812;2022-11-20T14:47:20;19.73;;;13.38;;